Time;durP1;ratioP1;P1;durP2;ratioP2;P2;SDS_P1;SDS_P2;PMS_P1;PMS_P2;Temp;Humidity;BMP_temperature;BMP_pressure;BME280_temperature;BME280_humidity;BME280_pressure;Samples;Min_cycle;Max_cycle;Signal;HPM_P1;HPM_P2
2023/11/22 00:02:03;;;;;;;;;;;;;;;;;;5072433;28;19912;-64
2023/11/22 00:04:29;;;;;;;;;;;;;;;;;;5070487;28;20331;-65
2023/11/22 00:06:55;;;;;;;;;;;;;;;;;;5072103;28;19913;-64
2023/11/22 00:09:22;;;;;;;;;;;;;;;;;;5064764;28;19909;-64
2023/11/22 00:11:49;;;;;;;;;;;;;;;;;;5056179;28;19928;-64
2023/11/22 00:14:15;;;;;;;;;;;;;;;;;;5063339;28;20444;-64
2023/11/22 00:16:41;;;;;;;;;;;;;;;;;;5070577;28;19940;-64
2023/11/22 00:19:07;;;;;;;;;;;;;;;;;;5063338;28;19918;-64
2023/11/22 00:21:33;;;;;;;;;;;;;;;;;;5072032;28;20430;-64
2023/11/22 00:23:59;;;;;;;;;;;;;;;;;;5069906;28;19916;-65
2023/11/22 00:26:25;;;;;;;;;;;;;;;;;;5071982;28;19970;-64
2023/11/22 00:28:53;;;;;;;;;;;;;;;;;;5070869;28;19948;-64
2023/11/22 00:31:19;;;;;;;;;;;;;;;;;;5071755;28;19920;-64
2023/11/22 00:33:46;;;;;;;;;;;;;;;;;;5067553;28;19913;-64
2023/11/22 00:36:12;;;;;;;;;;;;;;;;;;5060490;28;19920;-64
2023/11/22 00:38:39;;;;;;;;;;;;;;;;;;5068132;28;19920;-65
2023/11/22 00:41:07;;;;;;;;;;;;;;;;;;5071772;28;19912;-65
2023/11/22 00:43:33;;;;;;;;;;;;;;;;;;5069917;28;19912;-65
2023/11/22 00:45:59;;;;;;;;;;;;;;;;;;5069882;28;19967;-65
2023/11/22 00:48:25;;;;;;;;;;;;;;;;;;5062116;28;20343;-65
2023/11/22 00:50:51;;;;;;;;;;;;;;;;;;5063039;28;20059;-64
2023/11/22 00:53:18;;;;;;;;;;;;;;;;;;5074652;28;19909;-64
2023/11/22 00:55:44;;;;;;;;;;;;;;;;;;5068621;28;19912;-64
2023/11/22 00:58:09;;;;;;;;;;;;;;;;;;5075209;28;19919;-65
2023/11/22 01:00:35;;;;;;;;;;;;;;;;;;5075089;28;19948;-64
2023/11/22 01:03:04;;;;;;;;;;;;;;;;;;5073735;28;19959;-65
2023/11/22 01:05:30;;;;;;;;;;;;;;;;;;5044313;28;19913;-65
2023/11/22 01:07:56;;;;;;;;;;;;;;;;;;5064943;28;19923;-65
2023/11/22 01:10:22;;;;;;;;;;;;;;;;;;5057188;28;19978;-65
2023/11/22 01:12:48;;;;;;;;;;;;;;;;;;5074323;28;20399;-64
2023/11/22 01:15:14;;;;;;;;;;;;;;;;;;5070416;28;19960;-64
2023/11/22 01:17:40;;;;;;;;;;;;;;;;;;5075150;28;20012;-64
2023/11/22 01:20:07;;;;;;;;;;;;;;;;;;5056790;28;19920;-64
2023/11/22 01:22:34;;;;;;;;;;;;;;;;;;5064171;28;19913;-64
2023/11/22 01:25:01;;;;;;;;;;;;;;;;;;5061232;28;19924;-65
2023/11/22 01:27:27;;;;;;;;;;;;;;;;;;5056716;28;19916;-65
2023/11/22 01:29:54;;;;;;;;;;;;;;;;;;5074668;28;20284;-65
2023/11/22 01:32:21;;;;;;;;;;;;;;;;;;5057648;28;19924;-65
2023/11/22 01:34:46;;;;;;;;;;;;;;;;;;5074918;28;19913;-65
2023/11/22 01:37:12;;;;;;;;;;;;;;;;;;5044557;28;20005;-66
2023/11/22 01:39:38;;;;;;;;;;;;;;;;;;5074574;28;20011;-65
2023/11/22 01:42:06;;;;;;;;;;;;;;;;;;5073001;28;19912;-64
2023/11/22 01:44:32;;;;;;;;;;;;;;;;;;5074337;28;20261;-65
2023/11/22 01:46:58;;;;;;;;;;;;;;;;;;5055097;28;19948;-65
2023/11/22 01:49:24;;;;;;;;;;;;;;;;;;5076956;28;19918;-65
2023/11/22 01:51:50;;;;;;;;;;;;;;;;;;5064497;28;20573;-65
2023/11/22 01:54:16;;;;;;;;;;;;;;;;;;5072219;28;19913;-64
2023/11/22 01:56:42;;;;;;;;;;;;;;;;;;5063963;28;20391;-65
2023/11/22 01:59:07;;;;;;;;;;;;;;;;;;5071130;28;19954;-65
2023/11/22 02:01:33;;;;;;;;;;;;;;;;;;5060677;28;19959;-64
2023/11/22 02:04:00;;;;;;;;;;;;;;;;;;5053832;28;19978;-65
2023/11/22 02:06:26;;;;;;;;;;;;;;;;;;5054139;28;19913;-65
2023/11/22 02:08:52;;;;;;;;;;;;;;;;;;5067820;28;20387;-65
2023/11/22 02:11:24;;;;;;;;;;;;;;;;;;5074020;28;19997;-65
2023/11/22 02:13:50;;;;;;;;;;;;;;;;;;5073974;28;20009;-65
2023/11/22 02:16:16;;;;;;;;;;;;;;;;;;5073775;28;19912;-65
2023/11/22 02:18:42;;;;;;;;;;;;;;;;;;5072405;28;19912;-65
2023/11/22 02:21:08;;;;;;;;;;;;;;;;;;5073861;28;19908;-65
2023/11/22 02:23:34;;;;;;;;;;;;;;;;;;5073755;28;20032;-65
2023/11/22 02:26:00;;;;;;;;;;;;;;;;;;5048828;28;19928;-65
2023/11/22 02:28:26;;;;;;;;;;;;;;;;;;5033934;28;20475;-65
2023/11/22 02:30:52;;;;;;;;;;;;;;;;;;5038493;28;19947;-65
2023/11/22 02:33:18;;;;;;;;;;;;;;;;;;5053458;28;19956;-65
2023/11/22 02:35:44;;;;;;;;;;;;;;;;;;5052057;28;19923;-65
2023/11/22 02:38:10;;;;;;;;;;;;;;;;;;5044550;28;19917;-65
2023/11/22 02:40:36;;;;;;;;;;;;;;;;;;5052289;28;20387;-65
2023/11/22 02:43:07;;;;;;;;;;;;;;;;;;5041361;28;19953;-65
2023/11/22 02:45:33;;;;;;;;;;;;;;;;;;5047353;28;20407;-65
2023/11/22 02:48:01;;;;;;;;;;;;;;;;;;5034715;28;20019;-65
2023/11/22 02:50:27;;;;;;;;;;;;;;;;;;5041732;28;19931;-66
2023/11/22 02:52:53;;;;;;;;;;;;;;;;;;5047247;28;19912;-65
2023/11/22 02:55:19;;;;;;;;;;;;;;;;;;5053132;28;19924;-65
2023/11/22 02:57:45;;;;;;;;;;;;;;;;;;5053568;28;19923;-65
2023/11/22 03:00:14;;;;;;;;;;;;;;;;;;5049884;28;19917;-65
2023/11/22 03:02:41;;;;;;;;;;;;;;;;;;5040962;28;19913;-65
2023/11/22 03:05:07;;;;;;;;;;;;;;;;;;5052954;28;19920;-64
2023/11/22 03:07:33;;;;;;;;;;;;;;;;;;5051264;28;19948;-64
2023/11/22 03:10:00;;;;;;;;;;;;;;;;;;5046458;28;20466;-65
2023/11/22 03:12:31;;;;;;;;;;;;;;;;;;5052379;28;20364;-65
2023/11/22 03:15:00;;;;;;;;;;;;;;;;;;5036387;28;19913;-65
2023/11/22 03:17:26;;;;;;;;;;;;;;;;;;5033340;28;20370;-65
2023/11/22 03:19:51;;;;;;;;;;;;;;;;;;5039229;28;19967;-64
2023/11/22 03:22:17;;;;;;;;;;;;;;;;;;5041285;28;20007;-65
2023/11/22 03:24:43;;;;;;;;;;;;;;;;;;5050019;28;19912;-65
2023/11/22 03:27:10;;;;;;;;;;;;;;;;;;5065551;28;19926;-65
2023/11/22 03:29:36;;;;;;;;;;;;;;;;;;5069430;28;19924;-64
2023/11/22 03:32:02;;;;;;;;;;;;;;;;;;5068196;28;20327;-64
2023/11/22 03:34:27;;;;;;;;;;;;;;;;;;5068390;28;19920;-64
2023/11/22 03:36:53;;;;;;;;;;;;;;;;;;5057115;28;20019;-65
2023/11/22 03:39:19;;;;;;;;;;;;;;;;;;5060081;28;19926;-65
2023/11/22 03:41:45;;;;;;;;;;;;;;;;;;5071763;28;19912;-65
2023/11/22 03:44:11;;;;;;;;;;;;;;;;;;5072218;28;20000;-64
2023/11/22 03:46:37;;;;;;;;;;;;;;;;;;5072500;28;19917;-65
2023/11/22 03:49:03;;;;;;;;;;;;;;;;;;5056278;28;19913;-65
2023/11/22 03:51:29;;;;;;;;;;;;;;;;;;5052336;28;19967;-65
2023/11/22 03:53:55;;;;;;;;;;;;;;;;;;5069244;28;19908;-65
2023/11/22 03:56:21;;;;;;;;;;;;;;;;;;5071113;28;19919;-65
2023/11/22 03:58:48;;;;;;;;;;;;;;;;;;5084431;28;19951;-65
2023/11/22 04:01:16;;;;;;;;;;;;;;;;;;5092234;28;19993;-65
2023/11/22 04:03:41;;;;;;;;;;;;;;;;;;5065575;28;19909;-65
2023/11/22 04:06:07;;;;;;;;;;;;;;;;;;5052297;28;19936;-65
2023/11/22 04:08:33;;;;;;;;;;;;;;;;;;5052682;28;20411;-65
2023/11/22 04:10:59;;;;;;;;;;;;;;;;;;5062575;28;20018;-65
2023/11/22 04:13:25;;;;;;;;;;;;;;;;;;5070730;28;20340;-65
2023/11/22 04:15:51;;;;;;;;;;;;;;;;;;5059000;28;19913;-65
2023/11/22 04:18:17;;;;;;;;;;;;;;;;;;5055488;28;19948;-65
2023/11/22 04:20:43;;;;;;;;;;;;;;;;;;5067368;28;20350;-65
2023/11/22 04:23:10;;;;;;;;;;;;;;;;;;5061819;28;19955;-65
2023/11/22 04:25:36;;;;;;;;;;;;;;;;;;5060852;28;19975;-65
2023/11/22 04:28:02;;;;;;;;;;;;;;;;;;5073591;28;20390;-65
2023/11/22 04:30:28;;;;;;;;;;;;;;;;;;5074463;28;20059;-65
2023/11/22 04:32:54;;;;;;;;;;;;;;;;;;5075709;28;19913;-65
2023/11/22 04:35:20;;;;;;;;;;;;;;;;;;5075286;28;20002;-65
2023/11/22 04:37:46;;;;;;;;;;;;;;;;;;5064186;28;20399;-64
2023/11/22 04:40:14;;;;;;;;;;;;;;;;;;5075675;28;20291;-65
2023/11/22 04:42:40;;;;;;;;;;;;;;;;;;5075406;28;19916;-65
2023/11/22 04:45:06;;;;;;;;;;;;;;;;;;5072402;28;20383;-65
2023/11/22 04:47:32;;;;;;;;;;;;;;;;;;5071530;28;19912;-65
2023/11/22 04:49:58;;;;;;;;;;;;;;;;;;5075558;28;19916;-65
2023/11/22 04:52:24;;;;;;;;;;;;;;;;;;5074426;28;19963;-65
2023/11/22 04:54:49;;;;;;;;;;;;;;;;;;5055458;28;19913;-65
2023/11/22 04:57:15;;;;;;;;;;;;;;;;;;5074174;28;20371;-65
2023/11/22 04:59:42;;;;;;;;;;;;;;;;;;5073969;28;19913;-65
2023/11/22 05:02:08;;;;;;;;;;;;;;;;;;5073046;28;19913;-65
2023/11/22 05:04:34;;;;;;;;;;;;;;;;;;5082650;28;20012;-65
2023/11/22 05:07:00;;;;;;;;;;;;;;;;;;5069464;28;20004;-65
2023/11/22 05:09:26;;;;;;;;;;;;;;;;;;5074231;28;19958;-64
2023/11/22 05:11:52;;;;;;;;;;;;;;;;;;5077819;28;19966;-64
2023/11/22 05:14:18;;;;;;;;;;;;;;;;;;5095184;28;20275;-65
2023/11/22 05:16:44;;;;;;;;;;;;;;;;;;5074391;28;19912;-65
2023/11/22 05:19:10;;;;;;;;;;;;;;;;;;5095032;28;20276;-65
2023/11/22 05:21:36;;;;;;;;;;;;;;;;;;5083783;28;19915;-65
2023/11/22 05:24:02;;;;;;;;;;;;;;;;;;5095174;28;19936;-64
2023/11/22 05:26:28;;;;;;;;;;;;;;;;;;5080016;28;19955;-64
2023/11/22 05:28:54;;;;;;;;;;;;;;;;;;5083165;28;19963;-64
2023/11/22 05:31:20;;;;;;;;;;;;;;;;;;5070148;28;19916;-64
2023/11/22 05:33:46;;;;;;;;;;;;;;;;;;5092523;28;20372;-65
2023/11/22 05:36:12;;;;;;;;;;;;;;;;;;5089404;28;19912;-65
2023/11/22 05:38:38;;;;;;;;;;;;;;;;;;5084544;28;20011;-65
2023/11/22 05:41:04;;;;;;;;;;;;;;;;;;5090210;28;19952;-64
2023/11/22 05:43:30;;;;;;;;;;;;;;;;;;5084437;28;19943;-64
2023/11/22 05:45:56;;;;;;;;;;;;;;;;;;5077359;28;19995;-64
2023/11/22 05:48:22;;;;;;;;;;;;;;;;;;5079147;28;20000;-64
2023/11/22 05:50:48;;;;;;;;;;;;;;;;;;5076644;28;20357;-64
2023/11/22 05:53:19;;;;;;;;;;;;;;;;;;5068049;28;19916;-64
2023/11/22 05:55:44;;;;;;;;;;;;;;;;;;5092507;28;20394;-64
2023/11/22 05:58:10;;;;;;;;;;;;;;;;;;5075949;28;19912;-64
2023/11/22 06:00:37;;;;;;;;;;;;;;;;;;5090955;28;19914;-64
2023/11/22 06:03:03;;;;;;;;;;;;;;;;;;5062721;28;19920;-64
2023/11/22 06:05:30;;;;;;;;;;;;;;;;;;5064934;28;19952;-64
2023/11/22 06:07:56;;;;;;;;;;;;;;;;;;5083147;28;19912;-64
2023/11/22 06:10:24;;;;;;;;;;;;;;;;;;5089028;28;20351;-64
2023/11/22 06:12:50;;;;;;;;;;;;;;;;;;5077135;28;20275;-64
2023/11/22 06:15:18;;;;;;;;;;;;;;;;;;5088495;28;20400;-64
2023/11/22 06:17:44;;;;;;;;;;;;;;;;;;5085741;28;19983;-64
2023/11/22 06:20:11;;;;;;;;;;;;;;;;;;5089303;28;19999;-64
2023/11/22 06:22:40;;;;;;;;;;;;;;;;;;5083964;28;20347;-64
2023/11/22 06:25:06;;;;;;;;;;;;;;;;;;5090829;28;20012;-64
2023/11/22 06:27:33;;;;;;;;;;;;;;;;;;5080819;28;19995;-64
2023/11/22 06:29:59;;;;;;;;;;;;;;;;;;5093652;28;19995;-64
2023/11/22 06:32:25;;;;;;;;;;;;;;;;;;5081604;28;20011;-64
2023/11/22 06:34:51;;;;;;;;;;;;;;;;;;5083386;28;20375;-65
2023/11/22 06:37:17;;;;;;;;;;;;;;;;;;5089120;28;19914;-65
2023/11/22 06:39:43;;;;;;;;;;;;;;;;;;5087424;28;19908;-65
2023/11/22 06:42:09;;;;;;;;;;;;;;;;;;5092863;28;20264;-65
2023/11/22 06:44:35;;;;;;;;;;;;;;;;;;5066215;28;19913;-65
2023/11/22 06:47:01;;;;;;;;;;;;;;;;;;5083552;28;19939;-65
2023/11/22 06:49:28;;;;;;;;;;;;;;;;;;5085920;28;19923;-65
2023/11/22 06:51:54;;;;;;;;;;;;;;;;;;5068129;28;19924;-65
2023/11/22 06:54:20;;;;;;;;;;;;;;;;;;5070391;28;20360;-64
2023/11/22 06:56:46;;;;;;;;;;;;;;;;;;5083324;28;20049;-65
2023/11/22 06:59:12;;;;;;;;;;;;;;;;;;5078737;28;19913;-64
2023/11/22 07:01:39;;;;;;;;;;;;;;;;;;5082410;28;19919;-65
2023/11/22 07:04:06;;;;;;;;;;;;;;;;;;5063139;28;19917;-67
2023/11/22 07:06:32;;;;;;;;;;;;;;;;;;5073689;28;19923;-64
2023/11/22 07:08:59;;;;;;;;;;;;;;;;;;5071187;28;20772;-65
2023/11/22 07:11:25;;;;;;;;;;;;;;;;;;5072452;28;19916;-66
2023/11/22 07:13:51;;;;;;;;;;;;;;;;;;5069285;28;19912;-65
2023/11/22 07:16:18;;;;;;;;;;;;;;;;;;5073730;28;20356;-66
2023/11/22 07:18:45;;;;;;;;;;;;;;;;;;5068985;28;19919;-64
2023/11/22 07:21:11;;;;;;;;;;;;;;;;;;5071047;28;19912;-65
2023/11/22 07:23:38;;;;;;;;;;;;;;;;;;5075427;28;19999;-64
2023/11/22 07:26:03;;;;;;;;;;;;;;;;;;5075450;28;19970;-65
2023/11/22 07:28:30;;;;;;;;;;;;;;;;;;5074762;28;19920;-65
2023/11/22 07:30:56;;;;;;;;;;;;;;;;;;5066391;28;19938;-64
2023/11/22 07:33:26;;;;;;;;;;;;;;;;;;5066817;28;21363;-65
2023/11/22 07:35:52;;;;;;;;;;;;;;;;;;5069837;28;19935;-65
2023/11/22 07:38:17;;;;;;;;;;;;;;;;;;5067447;28;19913;-65
2023/11/22 07:40:43;;;;;;;;;;;;;;;;;;5068502;28;20291;-65
2023/11/22 07:43:09;;;;;;;;;;;;;;;;;;5068348;28;19927;-64
2023/11/22 07:45:37;;;;;;;;;;;;;;;;;;5065451;28;19957;-64
2023/11/22 07:48:03;;;;;;;;;;;;;;;;;;5065918;28;19916;-64
2023/11/22 07:50:29;;;;;;;;;;;;;;;;;;5065627;28;19912;-64
2023/11/22 07:52:55;;;;;;;;;;;;;;;;;;5067803;28;20313;-64
2023/11/22 07:55:22;;;;;;;;;;;;;;;;;;5070399;28;19912;-64
2023/11/22 07:57:48;;;;;;;;;;;;;;;;;;5070918;28;20008;-65
2023/11/22 08:00:19;;;;;;;;;;;;;;;;;;5070430;28;19912;-64
2023/11/22 08:02:44;;;;;;;;;;;;;;;;;;5072326;28;19920;-64
2023/11/22 08:05:15;;;;;;;;;;;;;;;;;;5069998;28;19968;-64
2023/11/22 08:07:40;;;;;;;;;;;;;;;;;;5073372;28;19919;-64
2023/11/22 08:10:09;;;;;;;;;;;;;;;;;;5076555;28;20003;-64
2023/11/22 08:12:36;;;;;;;;;;;;;;;;;;5078338;28;20341;-64
2023/11/22 08:15:03;;;;;;;;;;;;;;;;;;5079008;28;19912;-64
2023/11/22 08:17:29;;;;;;;;;;;;;;;;;;5085556;28;20390;-64
2023/11/22 08:19:55;;;;;;;;;;;;;;;;;;5070548;28;19920;-64
2023/11/22 08:22:21;;;;;;;;;;;;;;;;;;5078358;28;19912;-65
2023/11/22 08:24:47;;;;;;;;;;;;;;;;;;5079905;28;19920;-64
2023/11/22 08:27:16;;;;;;;;;;;;;;;;;;5077554;28;19921;-64
2023/11/22 08:29:42;;;;;;;;;;;;;;;;;;5079365;28;19920;-65
2023/11/22 08:32:08;;;;;;;;;;;;;;;;;;5080138;28;19962;-65
2023/11/22 08:34:34;;;;;;;;;;;;;;;;;;5079690;28;19912;-65
2023/11/22 08:37:00;;;;;;;;;;;;;;;;;;5076184;28;20026;-65
2023/11/22 08:39:27;;;;;;;;;;;;;;;;;;5077022;28;20371;-64
2023/11/22 08:41:52;;;;;;;;;;;;;;;;;;5081785;28;19989;-65
2023/11/22 08:44:19;;;;;;;;;;;;;;;;;;5074191;28;20050;-65
2023/11/22 08:46:47;;;;;;;;;;;;;;;;;;5079560;28;20257;-64
2023/11/22 08:49:15;;;;;;;;;;;;;;;;;;5076150;28;19977;-64
2023/11/22 08:51:42;;;;;;;;;;;;;;;;;;5073094;28;19954;-65
2023/11/22 08:54:08;;;;;;;;;;;;;;;;;;5075249;28;19916;-64
2023/11/22 08:56:35;;;;;;;;;;;;;;;;;;5076863;28;19920;-64
2023/11/22 08:59:00;;;;;;;;;;;;;;;;;;5075569;28;19908;-64
2023/11/22 09:01:26;;;;;;;;;;;;;;;;;;5079302;28;19954;-64
2023/11/22 09:03:52;;;;;;;;;;;;;;;;;;5074915;28;19995;-64
2023/11/22 09:06:18;;;;;;;;;;;;;;;;;;5073461;28;19990;-64
2023/11/22 09:08:45;;;;;;;;;;;;;;;;;;5072876;28;20382;-64
2023/11/22 09:11:11;;;;;;;;;;;;;;;;;;5068584;28;19923;-64
2023/11/22 09:13:39;;;;;;;;;;;;;;;;;;5067308;28;19917;-64
2023/11/22 09:16:05;;;;;;;;;;;;;;;;;;5073650;28;19956;-64
2023/11/22 09:18:31;;;;;;;;;;;;;;;;;;5073483;28;19977;-64
2023/11/22 09:20:57;;;;;;;;;;;;;;;;;;5071457;28;20327;-65
2023/11/22 09:23:26;;;;;;;;;;;;;;;;;;5078143;28;20007;-65
2023/11/22 09:25:52;;;;;;;;;;;;;;;;;;5075785;28;19917;-65
2023/11/22 09:28:19;;;;;;;;;;;;;;;;;;5076292;28;19913;-64
2023/11/22 09:30:45;;;;;;;;;;;;;;;;;;5072945;28;19919;-64
2023/11/22 09:33:12;;;;;;;;;;;;;;;;;;5082161;28;19909;-64
2023/11/22 09:35:39;;;;;;;;;;;;;;;;;;5077944;28;19915;-64
2023/11/22 09:38:06;;;;;;;;;;;;;;;;;;5079749;28;19913;-64
2023/11/22 09:40:32;;;;;;;;;;;;;;;;;;5077674;28;20320;-64
2023/11/22 09:42:59;;;;;;;;;;;;;;;;;;5077473;28;19998;-64
2023/11/22 09:45:25;;;;;;;;;;;;;;;;;;5072997;28;19912;-64
2023/11/22 09:47:51;;;;;;;;;;;;;;;;;;5077936;28;19952;-65
2023/11/22 09:50:17;;;;;;;;;;;;;;;;;;5068530;28;19937;-64
2023/11/22 09:52:43;;;;;;;;;;;;;;;;;;5074933;28;19981;-64
2023/11/22 09:55:09;;;;;;;;;;;;;;;;;;5075139;28;19920;-64
2023/11/22 09:57:35;;;;;;;;;;;;;;;;;;5076169;28;19954;-64
2023/11/22 10:00:01;;;;;;;;;;;;;;;;;;5070174;28;20288;-64
2023/11/22 10:02:28;;;;;;;;;;;;;;;;;;5073646;28;19916;-64
2023/11/22 10:04:54;;;;;;;;;;;;;;;;;;5069419;28;20090;-64
2023/11/22 10:07:20;;;;;;;;;;;;;;;;;;5085223;28;20126;-64
2023/11/22 10:09:46;;;;;;;;;;;;;;;;;;5076928;28;19948;-64
2023/11/22 10:12:11;;;;;;;;;;;;;;;;;;5073859;28;20010;-64
2023/11/22 10:14:38;;;;;;;;;;;;;;;;;;5068822;28;19916;-64
2023/11/22 10:17:05;;;;;;;;;;;;;;;;;;5074371;28;19912;-64
2023/11/22 10:19:31;;;;;;;;;;;;;;;;;;5070208;28;19916;-64
2023/11/22 10:21:57;;;;;;;;;;;;;;;;;;5071368;28;19959;-64
2023/11/22 10:24:23;;;;;;;;;;;;;;;;;;5074603;28;19980;-64
2023/11/22 10:26:49;;;;;;;;;;;;;;;;;;5075738;28;19925;-64
2023/11/22 10:29:15;;;;;;;;;;;;;;;;;;5075098;28;20361;-64
2023/11/22 10:31:42;;;;;;;;;;;;;;;;;;5078341;28;19952;-64
2023/11/22 10:34:07;;;;;;;;;;;;;;;;;;5069962;28;19996;-64
2023/11/22 10:36:33;;;;;;;;;;;;;;;;;;5070640;28;20012;-64
2023/11/22 10:38:59;;;;;;;;;;;;;;;;;;5070543;28;20007;-64
2023/11/22 10:41:25;;;;;;;;;;;;;;;;;;5082693;28;19912;-64
2023/11/22 10:43:51;;;;;;;;;;;;;;;;;;5066532;28;19991;-64
2023/11/22 10:46:17;;;;;;;;;;;;;;;;;;5069902;28;19974;-64
2023/11/22 10:48:43;;;;;;;;;;;;;;;;;;5074641;28;19928;-64
2023/11/22 10:51:09;;;;;;;;;;;;;;;;;;5075376;28;20504;-64
2023/11/22 10:53:35;;;;;;;;;;;;;;;;;;5069336;28;20047;-64
2023/11/22 10:56:02;;;;;;;;;;;;;;;;;;5083559;28;19918;-64
2023/11/22 10:58:28;;;;;;;;;;;;;;;;;;5081985;28;19912;-64
2023/11/22 11:00:55;;;;;;;;;;;;;;;;;;5069913;28;19931;-64
2023/11/22 11:03:21;;;;;;;;;;;;;;;;;;5082196;28;20007;-64
2023/11/22 11:05:47;;;;;;;;;;;;;;;;;;5086171;28;19908;-64
2023/11/22 11:08:14;;;;;;;;;;;;;;;;;;5086506;28;20261;-64
2023/11/22 11:10:41;;;;;;;;;;;;;;;;;;5074409;28;19917;-64
2023/11/22 11:13:09;;;;;;;;;;;;;;;;;;5070055;28;19912;-64
2023/11/22 11:15:35;;;;;;;;;;;;;;;;;;5074736;28;19921;-63
2023/11/22 11:18:01;;;;;;;;;;;;;;;;;;5079383;28;19955;-63
2023/11/22 11:20:27;;;;;;;;;;;;;;;;;;5066745;28;19913;-63
2023/11/22 11:22:52;;;;;;;;;;;;;;;;;;5084755;28;19999;-63
2023/11/22 11:25:18;;;;;;;;;;;;;;;;;;5075617;28;19947;-63
2023/11/22 11:27:44;;;;;;;;;;;;;;;;;;5076625;28;19930;-62
2023/11/22 11:30:10;;;;;;;;;;;;;;;;;;5066852;28;19912;-63
2023/11/22 11:32:36;;;;;;;;;;;;;;;;;;5083467;28;19926;-63
2023/11/22 11:35:06;;;;;;;;;;;;;;;;;;5063908;28;19912;-63
2023/11/22 11:37:32;;;;;;;;;;;;;;;;;;5074361;28;19935;-63
2023/11/22 11:39:58;;;;;;;;;;;;;;;;;;5077991;28;20380;-63
2023/11/22 11:42:24;;;;;;;;;;;;;;;;;;5082234;28;19912;-63
2023/11/22 11:44:50;;;;;;;;;;;;;;;;;;5069394;28;19948;-63
2023/11/22 11:47:16;;;;;;;;;;;;;;;;;;5078089;28;20291;-64
2023/11/22 11:49:42;;;;;;;;;;;;;;;;;;5073619;28;19927;-64
2023/11/22 11:52:08;;;;;;;;;;;;;;;;;;5073869;28;19920;-64
2023/11/22 11:54:34;;;;;;;;;;;;;;;;;;5077657;28;20417;-64
2023/11/22 11:57:01;;;;;;;;;;;;;;;;;;5072891;28;19916;-64
2023/11/22 11:59:27;;;;;;;;;;;;;;;;;;5074260;28;19915;-64
2023/11/22 12:01:55;;;;;;;;;;;;;;;;;;5083262;28;19913;-64
2023/11/22 12:04:21;;;;;;;;;;;;;;;;;;5068187;28;19920;-64
2023/11/22 12:06:46;;;;;;;;;;;;;;;;;;5071000;28;19951;-64
2023/11/22 12:09:13;;;;;;;;;;;;;;;;;;5068815;28;19912;-64
2023/11/22 12:11:40;;;;;;;;;;;;;;;;;;5072840;28;20327;-64
2023/11/22 12:14:06;;;;;;;;;;;;;;;;;;5073762;28;20364;-64
2023/11/22 12:16:33;;;;;;;;;;;;;;;;;;5071456;28;19919;-64
2023/11/22 12:18:59;;;;;;;;;;;;;;;;;;5071157;28;19995;-64
2023/11/22 12:21:27;;;;;;;;;;;;;;;;;;5073177;28;20042;-64
2023/11/22 12:23:52;;;;;;;;;;;;;;;;;;5067469;28;19923;-65
2023/11/22 12:26:18;;;;;;;;;;;;;;;;;;5073157;28;19920;-66
2023/11/22 12:28:44;;;;;;;;;;;;;;;;;;5070675;28;20411;-65
2023/11/22 12:31:10;;;;;;;;;;;;;;;;;;5076812;28;19966;-65
2023/11/22 12:33:36;;;;;;;;;;;;;;;;;;5082267;28;19912;-66
2023/11/22 12:36:03;;;;;;;;;;;;;;;;;;5086063;28;19912;-65
2023/11/22 12:38:29;;;;;;;;;;;;;;;;;;5070793;28;19960;-65
2023/11/22 12:40:55;;;;;;;;;;;;;;;;;;5077449;28;20404;-65
2023/11/22 12:43:21;;;;;;;;;;;;;;;;;;5080193;28;19969;-65
2023/11/22 12:45:50;;;;;;;;;;;;;;;;;;5076066;28;19995;-65
2023/11/22 12:48:17;;;;;;;;;;;;;;;;;;5085175;28;20340;-65
2023/11/22 12:50:43;;;;;;;;;;;;;;;;;;5086575;28;20367;-65
2023/11/22 12:53:10;;;;;;;;;;;;;;;;;;5081732;28;19942;-65
2023/11/22 12:55:36;;;;;;;;;;;;;;;;;;5087427;28;20380;-65
2023/11/22 12:58:03;;;;;;;;;;;;;;;;;;5070941;28;20003;-65
2023/11/22 13:00:29;;;;;;;;;;;;;;;;;;5077431;28;19912;-64
2023/11/22 13:02:56;;;;;;;;;;;;;;;;;;5076462;28;19951;-65
2023/11/22 13:05:22;;;;;;;;;;;;;;;;;;5086458;28;19951;-64
2023/11/22 13:07:48;;;;;;;;;;;;;;;;;;5076164;28;19970;-65
2023/11/22 13:10:16;;;;;;;;;;;;;;;;;;5075907;28;20305;-65
2023/11/22 13:12:43;;;;;;;;;;;;;;;;;;5073612;28;19925;-65
2023/11/22 13:15:11;;;;;;;;;;;;;;;;;;5069340;28;20431;-65
2023/11/22 13:17:37;;;;;;;;;;;;;;;;;;5075773;28;19917;-65
2023/11/22 13:20:05;;;;;;;;;;;;;;;;;;5072330;28;20261;-65
2023/11/22 13:22:31;;;;;;;;;;;;;;;;;;5071595;28;19916;-65
2023/11/22 13:24:58;;;;;;;;;;;;;;;;;;5073433;28;19963;-65
2023/11/22 13:27:25;;;;;;;;;;;;;;;;;;5073637;28;19924;-65
2023/11/22 13:29:52;;;;;;;;;;;;;;;;;;5073243;28;19919;-65
2023/11/22 13:32:18;;;;;;;;;;;;;;;;;;5073228;28;19916;-65
2023/11/22 13:34:44;;;;;;;;;;;;;;;;;;5070022;28;20379;-65
2023/11/22 13:37:10;;;;;;;;;;;;;;;;;;5073247;28;19917;-65
2023/11/22 13:39:36;;;;;;;;;;;;;;;;;;5091053;28;20559;-65
2023/11/22 13:42:02;;;;;;;;;;;;;;;;;;5093862;28;19908;-66
2023/11/22 13:44:28;;;;;;;;;;;;;;;;;;5086406;28;19912;-65
2023/11/22 13:46:54;;;;;;;;;;;;;;;;;;5093874;28;19915;-66
2023/11/22 13:49:20;;;;;;;;;;;;;;;;;;5066347;28;20006;-65
2023/11/22 13:51:46;;;;;;;;;;;;;;;;;;5079317;28;19956;-65
2023/11/22 13:54:14;;;;;;;;;;;;;;;;;;5070782;28;20283;-66
2023/11/22 13:56:40;;;;;;;;;;;;;;;;;;5076710;28;20380;-66
2023/11/22 13:59:06;;;;;;;;;;;;;;;;;;5091729;28;20017;-66
2023/11/22 14:01:32;;;;;;;;;;;;;;;;;;5079061;28;19995;-65
2023/11/22 14:03:58;;;;;;;;;;;;;;;;;;5084278;28;19986;-65
2023/11/22 14:06:24;;;;;;;;;;;;;;;;;;5071874;28;19983;-65
2023/11/22 14:08:50;;;;;;;;;;;;;;;;;;5075759;28;19958;-65
2023/11/22 14:11:16;;;;;;;;;;;;;;;;;;5073179;28;20000;-65
2023/11/22 14:13:42;;;;;;;;;;;;;;;;;;5071974;28;20280;-65
2023/11/22 14:16:08;;;;;;;;;;;;;;;;;;5073264;28;19920;-66
2023/11/22 14:18:34;;;;;;;;;;;;;;;;;;5071440;28;20003;-66
2023/11/22 14:21:03;;;;;;;;;;;;;;;;;;5072261;28;20003;-66
2023/11/22 14:23:28;;;;;;;;;;;;;;;;;;5081366;28;20048;-65
2023/11/22 14:25:54;;;;;;;;;;;;;;;;;;5072243;28;20439;-66
2023/11/22 14:28:20;;;;;;;;;;;;;;;;;;5069151;28;20011;-65
2023/11/22 14:30:46;;;;;;;;;;;;;;;;;;5063946;28;20357;-66
2023/11/22 14:33:12;;;;;;;;;;;;;;;;;;5069756;28;19999;-65
2023/11/22 14:35:38;;;;;;;;;;;;;;;;;;5070043;28;19947;-67
2023/11/22 14:38:05;;;;;;;;;;;;;;;;;;5085401;28;19970;-65
2023/11/22 14:40:33;;;;;;;;;;;;;;;;;;5070616;28;19973;-66
2023/11/22 14:43:00;;;;;;;;;;;;;;;;;;5062814;28;19912;-66
2023/11/22 14:45:26;;;;;;;;;;;;;;;;;;5061633;28;19965;-64
2023/11/22 14:47:52;;;;;;;;;;;;;;;;;;5064789;28;19935;-64
2023/11/22 14:50:19;;;;;;;;;;;;;;;;;;5073626;28;19956;-64
2023/11/22 14:52:47;;;;;;;;;;;;;;;;;;5073353;28;20002;-64
2023/11/22 14:55:13;;;;;;;;;;;;;;;;;;5067449;28;19908;-64
2023/11/22 14:57:40;;;;;;;;;;;;;;;;;;5087844;28;19918;-65
2023/11/22 15:00:09;;;;;;;;;;;;;;;;;;5073084;28;19913;-64
2023/11/22 15:02:36;;;;;;;;;;;;;;;;;;5075432;28;19916;-64
2023/11/22 15:05:02;;;;;;;;;;;;;;;;;;5067209;28;19939;-64
2023/11/22 15:07:28;;;;;;;;;;;;;;;;;;5068847;28;19912;-64
2023/11/22 15:09:54;;;;;;;;;;;;;;;;;;5066396;28;20395;-64
2023/11/22 15:12:20;;;;;;;;;;;;;;;;;;5071444;28;19987;-64
2023/11/22 15:14:46;;;;;;;;;;;;;;;;;;5071598;28;20276;-64
2023/11/22 15:17:12;;;;;;;;;;;;;;;;;;5065979;28;19912;-64
2023/11/22 15:19:38;;;;;;;;;;;;;;;;;;5073032;28;19919;-64
2023/11/22 15:22:05;;;;;;;;;;;;;;;;;;5063241;28;19909;-64
2023/11/22 15:24:31;;;;;;;;;;;;;;;;;;5072894;28;19913;-64
2023/11/22 15:26:57;;;;;;;;;;;;;;;;;;5061509;28;19929;-64
2023/11/22 15:29:23;;;;;;;;;;;;;;;;;;5076334;28;19958;-64
2023/11/22 15:31:51;;;;;;;;;;;;;;;;;;5062215;28;19912;-64
2023/11/22 15:34:16;;;;;;;;;;;;;;;;;;5061503;28;19939;-64
2023/11/22 15:36:43;;;;;;;;;;;;;;;;;;5081172;28;19916;-64
2023/11/22 15:39:15;;;;;;;;;;;;;;;;;;5076869;28;19944;-64
2023/11/22 15:41:41;;;;;;;;;;;;;;;;;;5081246;28;19913;-64
2023/11/22 15:44:07;;;;;;;;;;;;;;;;;;5079861;28;19915;-64
2023/11/22 15:46:34;;;;;;;;;;;;;;;;;;5080859;28;19920;-64
2023/11/22 15:49:00;;;;;;;;;;;;;;;;;;5076259;28;20342;-64
2023/11/22 15:51:26;;;;;;;;;;;;;;;;;;5065552;28;20019;-64
2023/11/22 15:53:52;;;;;;;;;;;;;;;;;;5076937;28;19948;-64
2023/11/22 15:56:18;;;;;;;;;;;;;;;;;;5080500;28;20354;-64
2023/11/22 15:58:44;;;;;;;;;;;;;;;;;;5074488;28;19999;-64
2023/11/22 16:01:11;;;;;;;;;;;;;;;;;;5076550;28;19920;-64
2023/11/22 16:03:38;;;;;;;;;;;;;;;;;;5077064;28;20378;-64
2023/11/22 16:06:04;;;;;;;;;;;;;;;;;;5073886;28;19912;-64
2023/11/22 16:08:30;;;;;;;;;;;;;;;;;;5074471;28;19962;-64
2023/11/22 16:10:56;;;;;;;;;;;;;;;;;;5071667;28;19916;-64
2023/11/22 16:13:22;;;;;;;;;;;;;;;;;;5075978;28;20309;-64
2023/11/22 16:15:48;;;;;;;;;;;;;;;;;;5074184;28;19916;-64
2023/11/22 16:18:17;;;;;;;;;;;;;;;;;;5084116;28;19919;-64
2023/11/22 16:20:43;;;;;;;;;;;;;;;;;;5077684;28;20249;-64
2023/11/22 16:23:08;;;;;;;;;;;;;;;;;;5078520;28;19954;-64
2023/11/22 16:25:34;;;;;;;;;;;;;;;;;;5071959;28;19936;-64
2023/11/22 16:28:00;;;;;;;;;;;;;;;;;;5066442;28;20384;-64
2023/11/22 16:30:26;;;;;;;;;;;;;;;;;;5076906;28;19912;-64
2023/11/22 16:32:52;;;;;;;;;;;;;;;;;;5074180;28;19916;-64
2023/11/22 16:35:18;;;;;;;;;;;;;;;;;;5075519;28;19909;-64
2023/11/22 16:37:44;;;;;;;;;;;;;;;;;;5076600;28;19961;-64
2023/11/22 16:40:10;;;;;;;;;;;;;;;;;;5074674;28;19921;-64